sensor_id;sensor_type;location;lat;lon;timestamp;temperature;humidity
54824;DHT22;40724;53.196;5.980;2023-07-13T00:01:55;20.60;91.10
54824;DHT22;40724;53.196;5.980;2023-07-13T00:04:23;20.50;91.10
54824;DHT22;40724;53.196;5.980;2023-07-13T00:06:51;20.50;91.10
54824;DHT22;40724;53.196;5.980;2023-07-13T00:09:17;20.50;91.10
54824;DHT22;40724;53.196;5.980;2023-07-13T00:11:44;20.50;91.10
54824;DHT22;40724;53.196;5.980;2023-07-13T00:14:10;20.40;91.10
54824;DHT22;40724;53.196;5.980;2023-07-13T00:16:38;20.40;91.00
54824;DHT22;40724;53.196;5.980;2023-07-13T00:19:05;20.40;91.00
54824;DHT22;40724;53.196;5.980;2023-07-13T00:21:31;20.40;91.00
54824;DHT22;40724;53.196;5.980;2023-07-13T00:23:57;20.40;91.00
54824;DHT22;40724;53.196;5.980;2023-07-13T00:26:23;20.40;90.90
54824;DHT22;40724;53.196;5.980;2023-07-13T00:28:49;20.40;90.90
54824;DHT22;40724;53.196;5.980;2023-07-13T00:31:15;20.40;90.90
54824;DHT22;40724;53.196;5.980;2023-07-13T00:33:41;20.40;90.80
54824;DHT22;40724;53.196;5.980;2023-07-13T00:36:08;20.40;90.80
54824;DHT22;40724;53.196;5.980;2023-07-13T00:43:28;20.30;90.80
54824;DHT22;40724;53.196;5.980;2023-07-13T01:03:03;20.30;90.90
54824;DHT22;40724;53.196;5.980;2023-07-13T01:28:02;20.20;90.90
54824;DHT22;40724;53.196;5.980;2023-07-13T01:30:28;20.00;90.60
54824;DHT22;40724;53.196;5.980;2023-07-13T01:32:54;20.00;90.70
54824;DHT22;40724;53.196;5.980;2023-07-13T01:35:20;19.90;90.70
54824;DHT22;40724;53.196;5.980;2023-07-13T01:37:46;19.90;90.80
54824;DHT22;40724;53.196;5.980;2023-07-13T01:40:12;19.90;90.80
54824;DHT22;40724;53.196;5.980;2023-07-13T07:46:45;19.90;90.80
54824;DHT22;40724;53.196;5.980;2023-07-13T07:49:11;20.60;92.60
54824;DHT22;40724;53.196;5.980;2023-07-13T07:51:37;20.50;92.40
54824;DHT22;40724;53.196;5.980;2023-07-13T07:54:04;20.50;92.40
54824;DHT22;40724;53.196;5.980;2023-07-13T07:56:30;20.50;92.40
54824;DHT22;40724;53.196;5.980;2023-07-13T07:58:56;20.50;92.40
54824;DHT22;40724;53.196;5.980;2023-07-13T08:01:22;20.60;92.40
54824;DHT22;40724;53.196;5.980;2023-07-13T08:03:48;20.60;92.40
54824;DHT22;40724;53.196;5.980;2023-07-13T08:06:14;20.60;92.50
54824;DHT22;40724;53.196;5.980;2023-07-13T08:08:40;20.60;92.50
54824;DHT22;40724;53.196;5.980;2023-07-13T08:11:07;20.70;92.80
54824;DHT22;40724;53.196;5.980;2023-07-13T08:13:34;20.70;92.60
54824;DHT22;40724;53.196;5.980;2023-07-13T08:16:00;20.80;92.60
54824;DHT22;40724;53.196;5.980;2023-07-13T19:39:03;20.80;92.60
54824;DHT22;40724;53.196;5.980;2023-07-13T20:30:42;23.60;78.40
54824;DHT22;40724;53.196;5.980;2023-07-13T20:48:22;22.80;80.20
54824;DHT22;40724;53.196;5.980;2023-07-13T20:50:51;22.50;80.80
54824;DHT22;40724;53.196;5.980;2023-07-13T20:53:17;22.50;81.20
54824;DHT22;40724;53.196;5.980;2023-07-13T20:55:43;22.50;81.30
54824;DHT22;40724;53.196;5.980;2023-07-13T20:58:09;22.40;81.40
54824;DHT22;40724;53.196;5.980;2023-07-13T21:00:36;22.40;82.10
54824;DHT22;40724;53.196;5.980;2023-07-13T21:03:06;22.40;81.50
54824;DHT22;40724;53.196;5.980;2023-07-13T21:05:39;22.40;81.70
54824;DHT22;40724;53.196;5.980;2023-07-13T21:15:34;22.40;81.90
54824;DHT22;40724;53.196;5.980;2023-07-13T21:18:01;22.30;82.60
54824;DHT22;40724;53.196;5.980;2023-07-13T21:20:30;22.20;82.80
54824;DHT22;40724;53.196;5.980;2023-07-13T22:35:14;22.10;83.00
54824;DHT22;40724;53.196;5.980;2023-07-13T22:37:42;21.50;86.10
54824;DHT22;40724;53.196;5.980;2023-07-13T22:40:14;21.40;86.00
54824;DHT22;40724;53.196;5.980;2023-07-13T22:42:42;21.40;86.20
54824;DHT22;40724;53.196;5.980;2023-07-13T22:45:09;21.30;86.20
54824;DHT22;40724;53.196;5.980;2023-07-13T22:47:37;21.30;86.30
54824;DHT22;40724;53.196;5.980;2023-07-13T22:50:15;21.30;86.50
54824;DHT22;40724;53.196;5.980;2023-07-13T22:52:41;21.30;86.70
54824;DHT22;40724;53.196;5.980;2023-07-13T22:55:14;21.30;86.70
54824;DHT22;40724;53.196;5.980;2023-07-13T22:57:41;21.20;87.60
54824;DHT22;40724;53.196;5.980;2023-07-13T23:00:16;21.20;86.90
54824;DHT22;40724;53.196;5.980;2023-07-13T23:02:42;21.20;87.10
